createdAt,value
2023-04-06T00:01:51.087Z,102069.47
2023-04-06T00:04:54.101Z,102064.13
2023-04-06T00:07:59.270Z,102061.47
2023-04-06T00:11:02.217Z,102065.97
2023-04-06T00:14:05.444Z,102065.97
2023-04-06T00:17:08.464Z,102063.38
2023-04-06T00:20:12.324Z,102066.03
2023-04-06T00:23:16.875Z,102059.81
2023-04-06T00:26:19.756Z,102058.94
2023-04-06T00:29:23.809Z,102059.00
2023-04-06T00:32:26.746Z,102059.00
2023-04-06T00:35:29.891Z,102057.22
2023-04-06T00:38:34.184Z,102048.34
2023-04-06T00:41:37.130Z,102049.22
2023-04-06T00:44:40.184Z,102043.00
2023-04-06T00:47:43.386Z,102048.34
2023-04-06T00:50:46.357Z,102043.88
2023-04-06T00:53:50.793Z,102053.66
2023-04-06T00:56:54.068Z,102040.41
2023-04-06T00:59:57.228Z,102043.13
2023-04-06T01:03:00.806Z,102041.34
2023-04-06T01:06:12.490Z,102039.63
2023-04-06T01:09:19.109Z,102036.06
2023-04-06T01:12:23.783Z,102038.75
2023-04-06T01:15:27.951Z,102036.06
2023-04-06T01:18:31.499Z,102033.41
2023-04-06T01:21:47.845Z,102032.53
2023-04-06T01:25:15.513Z,102034.28
2023-04-06T01:28:26.850Z,102044.94
2023-04-06T01:31:41.049Z,102032.53
2023-04-06T01:34:44.083Z,102031.63
2023-04-06T01:37:47.142Z,102035.19
2023-04-06T01:40:59.044Z,102037.88
2023-04-06T01:44:06.845Z,102044.09
2023-04-06T01:47:09.980Z,102038.81
2023-04-06T01:50:13.322Z,102037.03
2023-04-06T01:53:21.251Z,102037.03
2023-04-06T01:56:26.611Z,102037.94
2023-04-06T01:59:48.508Z,102038.88
2023-04-06T02:03:16.587Z,102035.28
2023-04-06T02:06:20.827Z,102036.09
2023-04-06T02:09:24.868Z,102036.09
2023-04-06T02:12:29.237Z,102038.75
2023-04-06T02:15:32.242Z,102034.38
2023-04-06T02:18:35.946Z,102033.44
2023-04-06T02:21:38.921Z,102031.72
2023-04-06T02:24:42.014Z,102027.28
2023-04-06T02:27:46.304Z,102029.94
2023-04-06T02:30:49.227Z,102029.94
2023-04-06T02:33:53.275Z,102027.28
2023-04-06T02:36:56.469Z,102027.28
2023-04-06T02:39:59.417Z,102035.28
2023-04-06T02:43:04.000Z,102027.25
2023-04-06T02:46:08.601Z,102028.09
2023-04-06T02:49:14.839Z,102026.31
2023-04-06T02:52:18.827Z,102025.38
2023-04-06T02:55:22.570Z,102023.53
2023-04-06T02:58:27.501Z,102023.47
2023-04-06T03:01:33.400Z,102026.13
2023-04-06T03:04:40.517Z,102026.06
2023-04-06T03:07:53.689Z,102027.81
2023-04-06T03:11:06.151Z,102022.44
2023-04-06T03:14:18.227Z,102023.25
2023-04-06T03:17:21.314Z,102037.41
2023-04-06T03:20:25.124Z,102033.88
2023-04-06T03:23:28.232Z,102028.47
2023-04-06T03:26:35.389Z,102033.81
2023-04-06T03:29:43.937Z,102030.25
2023-04-06T03:32:51.214Z,102039.97
2023-04-06T03:35:56.598Z,102041.72
2023-04-06T03:39:02.501Z,102044.38
2023-04-06T03:42:08.365Z,102050.59
2023-04-06T03:45:15.526Z,102049.72
2023-04-06T03:48:24.108Z,102052.38
2023-04-06T03:51:27.259Z,102055.94
2023-04-06T03:54:30.187Z,102058.63
2023-04-06T03:57:33.178Z,102059.56
2023-04-06T04:00:37.513Z,102068.44
2023-04-06T04:03:40.822Z,102067.53
2023-04-06T04:06:43.753Z,102067.59
2023-04-06T04:09:46.753Z,102077.31
2023-04-06T04:12:50.965Z,102080.03
2023-04-06T04:15:55.282Z,102072.94
2023-04-06T04:18:59.009Z,102076.56
2023-04-06T04:22:01.987Z,102079.28
2023-04-06T04:25:10.535Z,102078.41
2023-04-06T04:28:20.100Z,102080.22
2023-04-06T04:31:25.199Z,102080.22
2023-04-06T04:34:33.862Z,102085.59
2023-04-06T04:37:36.906Z,102086.50
2023-04-06T04:40:40.661Z,102088.28
2023-04-06T04:43:46.587Z,102093.63
2023-04-06T04:46:54.033Z,102089.22
2023-04-06T04:50:02.330Z,102087.41
2023-04-06T04:53:07.342Z,102080.31
2023-04-06T04:56:10.488Z,102084.72
2023-04-06T04:59:13.909Z,102092.72
2023-04-06T05:02:24.477Z,102089.13
2023-04-06T05:05:46.388Z,102089.94
2023-04-06T05:08:52.288Z,102087.28
2023-04-06T05:11:55.795Z,102089.06
2023-04-06T05:14:58.984Z,102100.53
2023-04-06T05:18:03.530Z,102100.47
2023-04-06T05:21:09.984Z,102098.69
2023-04-06T05:24:31.492Z,102096.88
2023-04-06T05:27:35.635Z,102095.06
2023-04-06T05:30:44.556Z,102107.44
2023-04-06T05:33:50.068Z,102102.13
2023-04-06T05:37:01.090Z,102102.97
2023-04-06T05:40:04.536Z,102104.78
2023-04-06T05:43:10.913Z,102111.84
2023-04-06T05:46:18.035Z,102118.94
2023-04-06T05:49:22.521Z,102117.16
2023-04-06T05:52:25.624Z,102117.16
2023-04-06T05:55:28.952Z,102109.31
2023-04-06T05:58:44.274Z,102117.47
2023-04-06T06:01:50.417Z,102117.59
2023-04-06T06:04:55.580Z,102119.56
2023-04-06T06:08:03.070Z,102121.47
2023-04-06T06:11:06.920Z,102120.69
2023-04-06T06:14:10.020Z,102121.63
2023-04-06T06:17:16.956Z,102124.31
2023-04-06T06:20:24.096Z,102123.53
2023-04-06T06:23:27.439Z,102127.13
2023-04-06T06:26:30.841Z,102119.22
2023-04-06T06:29:35.536Z,102116.59
2023-04-06T06:32:38.646Z,102119.28
2023-04-06T06:35:43.034Z,102127.28
2023-04-06T06:38:46.401Z,102116.69
2023-04-06T06:41:52.060Z,102125.50
2023-04-06T06:44:59.588Z,102127.25
2023-04-06T06:48:02.635Z,102126.34
2023-04-06T06:51:07.264Z,102127.22
2023-04-06T06:54:10.415Z,102132.53
2023-04-06T06:57:13.583Z,102123.63
2023-04-06T07:00:16.999Z,102128.03
2023-04-06T07:03:22.620Z,102127.97
2023-04-06T07:06:26.965Z,102128.88
2023-04-06T07:09:29.992Z,102123.53
2023-04-06T07:12:34.455Z,102124.41
2023-04-06T07:15:39.188Z,102119.13
2023-04-06T07:18:42.137Z,102123.59
2023-04-06T07:21:46.622Z,102120.97
2023-04-06T07:24:49.604Z,102120.97
2023-04-06T07:27:52.685Z,102116.53
2023-04-06T07:30:56.338Z,102116.53
2023-04-06T07:33:59.462Z,102116.53
2023-04-06T07:37:04.243Z,102114.78
2023-04-06T07:40:09.280Z,102120.09
2023-04-06T07:43:12.337Z,102121.88
2023-04-06T07:46:15.569Z,102119.22
2023-04-06T07:49:18.767Z,102116.53
2023-04-06T07:52:23.158Z,102119.16
2023-04-06T07:55:26.451Z,102120.97
2023-04-06T07:58:29.416Z,102119.16
2023-04-06T08:01:32.489Z,102128.97
2023-04-06T08:04:35.768Z,102116.53
2023-04-06T08:07:40.642Z,102121.88
2023-04-06T08:10:43.595Z,102125.44
2023-04-06T08:13:46.455Z,102125.44
2023-04-06T08:16:49.393Z,102118.28
2023-04-06T08:19:52.348Z,102125.44
2023-04-06T08:22:56.673Z,102129.88
2023-04-06T08:25:59.644Z,102117.44
2023-04-06T08:29:05.001Z,102124.53
2023-04-06T08:32:08.156Z,102120.09
2023-04-06T08:35:11.265Z,102125.44
2023-04-06T08:38:15.577Z,102122.78
2023-04-06T08:41:18.772Z,102114.78
2023-04-06T08:44:21.894Z,102124.53
2023-04-06T08:47:25.161Z,102117.44
2023-04-06T08:50:28.863Z,102128.09
2023-04-06T08:53:33.225Z,102120.97
2023-04-06T08:56:40.831Z,102123.63
2023-04-06T08:59:44.245Z,102118.31
2023-04-06T09:02:48.250Z,102120.97
2023-04-06T09:05:52.268Z,102120.94
2023-04-06T09:08:57.608Z,102116.47
2023-04-06T09:12:06.618Z,102109.38
2023-04-06T09:15:23.587Z,102106.66
2023-04-06T09:18:30.818Z,102101.34
2023-04-06T09:21:33.796Z,102104.00
2023-04-06T09:24:46.086Z,102111.09
2023-04-06T09:27:49.074Z,102102.22
2023-04-06T09:30:52.111Z,102104.00
2023-04-06T09:33:55.502Z,102103.09
2023-04-06T09:36:59.317Z,102098.66
2023-04-06T09:40:08.029Z,102101.31
2023-04-06T09:43:11.988Z,102101.31
2023-04-06T09:46:15.748Z,102105.72
2023-04-06T09:49:20.659Z,102107.47
2023-04-06T09:52:26.182Z,102091.50
2023-04-06T09:55:35.377Z,102098.56
2023-04-06T09:58:42.794Z,102096.72
2023-04-06T10:01:48.589Z,102087.91
2023-04-06T10:04:58.836Z,102080.84
2023-04-06T10:08:07.490Z,102084.34
2023-04-06T10:11:12.036Z,102087.03
2023-04-06T10:14:15.556Z,102079.97
2023-04-06T10:17:18.518Z,102079.09
2023-04-06T10:20:27.702Z,102081.75
2023-04-06T10:23:36.944Z,102083.50
2023-04-06T10:26:41.500Z,102080.84
2023-04-06T10:29:47.517Z,102079.09
2023-04-06T10:32:50.670Z,102086.16
2023-04-06T10:35:53.695Z,102079.09
2023-04-06T10:38:58.428Z,102076.41
2023-04-06T10:42:08.554Z,102076.41
2023-04-06T10:45:21.559Z,102066.69
2023-04-06T10:48:25.177Z,102078.25
2023-04-06T10:51:30.534Z,102075.59
2023-04-06T10:54:33.950Z,102074.72
2023-04-06T10:57:38.938Z,102066.78
2023-04-06T11:00:50.640Z,102068.56
2023-04-06T11:03:55.552Z,102072.09
2023-04-06T11:06:59.010Z,102072.09
2023-04-06T11:10:14.590Z,102059.66
2023-04-06T11:13:21.956Z,102072.09
2023-04-06T11:16:26.480Z,102068.53
2023-04-06T11:19:29.470Z,102062.28
2023-04-06T11:22:33.160Z,102060.53
2023-04-06T11:25:36.188Z,102067.66
2023-04-06T11:28:41.450Z,102066.78
2023-04-06T11:31:46.763Z,102055.25
2023-04-06T11:34:50.432Z,102056.13
2023-04-06T11:37:53.601Z,102056.13
2023-04-06T11:40:56.561Z,102049.91
2023-04-06T11:44:03.353Z,102050.78
2023-04-06T11:47:08.835Z,102052.56
2023-04-06T11:50:13.518Z,102053.41
2023-04-06T11:53:16.670Z,102058.72
2023-04-06T11:56:27.146Z,102049.78
2023-04-06T11:59:31.642Z,102036.47
2023-04-06T12:02:34.608Z,102042.69
2023-04-06T12:05:37.580Z,102039.13
2023-04-06T12:08:41.054Z,102040.00
2023-04-06T12:11:44.043Z,102034.75
2023-04-06T12:14:48.316Z,102040.06
2023-04-06T12:17:51.644Z,102040.06
2023-04-06T12:20:54.619Z,102042.75
2023-04-06T12:23:57.623Z,102043.63
2023-04-06T12:27:09.301Z,102039.25
2023-04-06T12:30:15.904Z,102037.47
2023-04-06T12:33:18.981Z,102040.13
2023-04-06T12:36:22.875Z,102033.91
2023-04-06T12:39:26.415Z,102038.31
2023-04-06T12:42:29.450Z,102035.63
2023-04-06T12:45:34.249Z,102032.16
2023-04-06T12:48:37.499Z,102034.06
2023-04-06T12:51:40.432Z,102026.31
2023-04-06T12:54:43.908Z,102019.34
2023-04-06T12:57:47.421Z,102022.91
2023-04-06T13:00:52.302Z,102022.91
2023-04-06T13:03:55.288Z,102015.84
2023-04-06T13:06:58.179Z,102018.50
2023-04-06T13:10:01.317Z,102022.03
2023-04-06T13:13:04.259Z,102009.59
2023-04-06T13:16:10.528Z,102008.69
2023-04-06T13:19:14.946Z,102013.97
2023-04-06T13:22:17.996Z,102007.75
2023-04-06T13:25:21.115Z,102005.03
2023-04-06T13:28:24.077Z,102004.19
2023-04-06T13:31:28.522Z,102001.53
2023-04-06T13:34:31.579Z,102001.53
2023-04-06T13:37:34.725Z,102005.09
2023-04-06T13:40:40.520Z,102002.44
2023-04-06T13:43:43.510Z,101991.84
2023-04-06T13:46:47.875Z,101992.72
2023-04-06T13:49:52.597Z,101991.78
2023-04-06T13:52:55.621Z,101987.34
2023-04-06T13:55:58.466Z,101988.22
2023-04-06T13:59:02.070Z,101993.53
2023-04-06T14:02:08.362Z,101984.66
2023-04-06T14:05:12.627Z,101984.63
2023-04-06T14:08:15.613Z,101983.72
2023-04-06T14:11:18.420Z,101983.66
2023-04-06T14:14:22.038Z,101983.59
2023-04-06T14:17:26.728Z,101977.44
2023-04-06T14:20:30.573Z,101975.59
2023-04-06T14:23:34.589Z,101981.78
2023-04-06T14:26:38.018Z,101979.09
2023-04-06T14:29:40.853Z,101973.78
2023-04-06T14:32:45.065Z,101972.94
2023-04-06T14:35:47.846Z,101969.41
2023-04-06T14:38:50.669Z,101968.50
2023-04-06T14:41:53.416Z,101978.28
2023-04-06T14:44:56.185Z,101968.50
2023-04-06T14:48:00.366Z,101965.84
2023-04-06T14:51:03.587Z,101966.72
2023-04-06T14:54:06.887Z,101971.13
2023-04-06T14:57:09.787Z,101956.97
2023-04-06T15:00:14.447Z,101962.22
2023-04-06T15:03:20.199Z,101958.63
2023-04-06T15:06:23.845Z,101967.56
2023-04-06T15:09:26.693Z,101967.56
2023-04-06T15:12:30.556Z,101969.34
2023-04-06T15:15:33.420Z,101972.88
2023-04-06T15:18:37.604Z,101970.22
2023-04-06T15:21:40.361Z,101966.63
2023-04-06T15:24:43.140Z,101955.97
2023-04-06T15:27:46.684Z,101964.84
2023-04-06T15:30:49.599Z,101969.25
2023-04-06T15:33:53.916Z,101972.78
2023-04-06T15:37:03.193Z,101961.28
2023-04-06T15:40:06.761Z,101963.88
2023-04-06T15:43:09.623Z,101961.22
2023-04-06T15:46:12.681Z,101966.53
2023-04-06T15:49:16.860Z,101960.31
2023-04-06T15:52:19.649Z,101957.66
2023-04-06T15:55:22.520Z,101956.78
2023-04-06T15:58:25.278Z,101955.94
2023-04-06T16:01:28.176Z,101959.50
2023-04-06T16:04:32.534Z,101962.22
2023-04-06T16:07:36.745Z,101957.78
2023-04-06T16:10:39.512Z,101956.03
2023-04-06T16:13:45.074Z,101957.78
2023-04-06T16:16:51.349Z,101962.22
2023-04-06T16:19:55.579Z,101954.25
2023-04-06T16:22:58.507Z,101956.91
2023-04-06T16:26:01.884Z,101965.72
2023-04-06T16:29:04.898Z,101967.44
2023-04-06T16:32:11.050Z,101963.00
2023-04-06T16:35:15.247Z,101969.22
2023-04-06T16:38:18.548Z,101958.56
2023-04-06T16:41:21.507Z,101967.41
2023-04-06T16:44:24.306Z,101966.50
2023-04-06T16:47:27.077Z,101964.75
2023-04-06T16:50:31.230Z,101966.50
2023-04-06T16:53:34.096Z,101970.97
2023-04-06T16:56:36.894Z,101962.09
2023-04-06T16:59:40.138Z,101967.41
2023-04-06T17:02:42.917Z,101958.56
2023-04-06T17:05:47.143Z,101963.88
2023-04-06T17:08:50.819Z,101962.13
2023-04-06T17:11:53.648Z,101963.06
2023-04-06T17:14:56.479Z,101957.78
2023-04-06T17:17:59.241Z,101966.63
2023-04-06T17:21:07.582Z,101963.97
2023-04-06T17:24:10.480Z,101964.84
2023-04-06T17:27:13.251Z,101961.28
2023-04-06T17:30:17.868Z,101959.50
2023-04-06T17:33:22.175Z,101963.97
2023-04-06T17:36:27.915Z,101963.97
2023-04-06T17:39:30.773Z,101972.81
2023-04-06T17:42:33.655Z,101979.09
2023-04-06T17:45:36.510Z,101976.44
2023-04-06T17:48:39.309Z,101970.28
2023-04-06T17:51:43.466Z,101976.44
2023-04-06T17:54:46.426Z,101980.03
2023-04-06T17:57:49.320Z,101975.59
2023-04-06T18:00:52.060Z,101976.50
2023-04-06T18:03:54.970Z,101988.94
2023-04-06T18:06:59.416Z,101980.94
2023-04-06T18:10:02.859Z,101986.25
2023-04-06T18:13:05.831Z,101982.72
2023-04-06T18:16:08.662Z,101987.16
2023-04-06T18:19:11.433Z,101983.59
2023-04-06T18:22:16.391Z,101994.25
2023-04-06T18:25:19.431Z,101985.44
2023-04-06T18:28:22.212Z,101994.31
2023-04-06T18:31:25.042Z,102003.19
2023-04-06T18:34:27.933Z,102005.03
2023-04-06T18:37:32.091Z,101997.03
2023-04-06T18:40:36.001Z,101999.69
2023-04-06T18:43:40.173Z,101999.69
2023-04-06T18:46:45.120Z,102005.91
2023-04-06T18:49:47.925Z,102004.13
2023-04-06T18:52:52.089Z,102005.03
2023-04-06T18:55:54.923Z,102008.59
2023-04-06T18:58:57.823Z,102008.59
2023-04-06T19:02:00.770Z,102012.19
2023-04-06T19:05:03.779Z,102012.19
2023-04-06T19:08:08.067Z,102018.34
2023-04-06T19:11:11.981Z,102012.19
2023-04-06T19:14:14.733Z,102017.50
2023-04-06T19:17:17.558Z,102015.75
2023-04-06T19:20:20.444Z,102012.19
2023-04-06T19:23:24.858Z,102014.00
2023-04-06T19:26:29.406Z,102016.69
2023-04-06T19:29:32.543Z,102011.34
2023-04-06T19:32:35.372Z,102014.00
2023-04-06T19:35:38.169Z,102016.69
2023-04-06T19:38:42.847Z,102015.78
2023-04-06T19:41:45.820Z,102014.00
2023-04-06T19:44:48.878Z,102014.00
2023-04-06T19:47:51.796Z,102015.78
2023-04-06T19:50:55.123Z,102011.38
2023-04-06T19:53:59.504Z,102010.53
2023-04-06T19:57:02.376Z,102011.41
2023-04-06T20:00:05.965Z,102007.84
2023-04-06T20:03:12.753Z,102012.34
2023-04-06T20:06:16.788Z,102007.88
2023-04-06T20:09:21.766Z,102014.09
2023-04-06T20:12:24.536Z,102007.84
2023-04-06T20:15:28.049Z,102006.94
2023-04-06T20:18:32.139Z,102017.56
2023-04-06T20:21:36.246Z,102014.03
2023-04-06T20:24:41.011Z,102012.19
2023-04-06T20:27:44.077Z,102014.00
2023-04-06T20:30:46.885Z,102007.84
2023-04-06T20:33:49.606Z,102014.91
2023-04-06T20:36:52.508Z,102013.19
2023-04-06T20:39:56.890Z,102010.53
2023-04-06T20:42:59.939Z,102005.19
2023-04-06T20:46:03.325Z,102004.31
2023-04-06T20:49:06.131Z,102006.03
2023-04-06T20:52:08.915Z,102011.34
2023-04-06T20:55:13.432Z,101997.16
2023-04-06T20:58:20.495Z,101998.94
2023-04-06T21:01:23.806Z,102000.78
2023-04-06T21:04:26.715Z,102007.84
2023-04-06T21:07:29.512Z,102010.53
2023-04-06T21:10:33.662Z,102005.19
2023-04-06T21:13:36.707Z,102004.31
2023-04-06T21:16:39.492Z,102003.44
2023-04-06T21:19:42.227Z,102003.44
2023-04-06T21:22:45.024Z,102003.44
2023-04-06T21:25:50.184Z,101996.38
2023-04-06T21:28:52.954Z,102001.72
2023-04-06T21:31:55.875Z,102007.03
2023-04-06T21:34:58.620Z,102007.88
2023-04-06T21:38:01.384Z,102003.44
2023-04-06T21:41:06.462Z,102002.56
2023-04-06T21:44:09.294Z,102007.03
2023-04-06T21:47:12.068Z,102012.34
2023-04-06T21:50:14.883Z,101999.94
2023-04-06T21:53:17.651Z,102006.16
2023-04-06T21:56:26.150Z,102007.94
2023-04-06T21:59:28.922Z,102000.81
2023-04-06T22:02:32.213Z,102000.84
2023-04-06T22:05:37.223Z,102005.34
2023-04-06T22:08:39.993Z,102000.13
2023-04-06T22:11:44.108Z,101996.69
2023-04-06T22:14:46.845Z,101994.97
2023-04-06T22:17:49.727Z,102001.31
2023-04-06T22:20:53.540Z,101996.00
2023-04-06T22:23:56.362Z,102002.31
2023-04-06T22:27:00.735Z,101996.97
2023-04-06T22:30:03.491Z,101997.81
2023-04-06T22:33:06.732Z,102010.28
2023-04-06T22:36:09.904Z,101996.97
2023-04-06T22:39:12.772Z,101995.16
2023-04-06T22:42:16.918Z,101994.28
2023-04-06T22:45:19.736Z,101989.81
2023-04-06T22:48:22.603Z,101995.16
2023-04-06T22:51:25.499Z,101990.69
2023-04-06T22:54:28.312Z,101995.16
2023-04-06T22:57:32.429Z,101987.13
2023-04-06T23:00:35.219Z,101985.34
2023-04-06T23:03:38.013Z,101988.91
2023-04-06T23:06:40.753Z,101986.22
2023-04-06T23:09:44.305Z,101990.69
2023-04-06T23:12:48.891Z,101990.69
2023-04-06T23:15:51.707Z,101981.84
2023-04-06T23:18:54.487Z,101985.41
2023-04-06T23:21:58.375Z,101981.00
2023-04-06T23:25:01.125Z,101979.25
2023-04-06T23:28:05.926Z,101981.91
2023-04-06T23:31:08.766Z,101980.13
2023-04-06T23:34:11.603Z,101974.81
2023-04-06T23:37:14.410Z,101976.59
2023-04-06T23:40:18.070Z,101975.75
2023-04-06T23:43:22.137Z,101976.66
2023-04-06T23:46:24.985Z,101983.75
2023-04-06T23:49:27.739Z,101979.31
2023-04-06T23:52:30.757Z,101981.97
2023-04-06T23:55:33.967Z,101977.59
2023-04-06T23:58:38.138Z,101982.91
